Weather at Bielsko-Biała Aleksandrowice Airfield

Public forecast

Using degrees Celsius for public forecast. Weather courtesy of forecast.io.

Closest aviation weather report (METAR) to Bielsko-Biała Aleksandrowice Airfield

Closest report is Kraków John Paul II International Airport, 34.4 nm (63.7 km) ENE.

2024/06/19 06:30 (retrieved 18 minutes ago)

EPKK 190630Z 06003KT 040V100 CAVOK 25/17 Q1014

Closest aviation forecast (TAF) to Bielsko-Biała Aleksandrowice Airfield

Closest forecast is Kraków John Paul II International Airport, 34.4 nm (63.7 km) ENE.

2024/06/19 06:37 (retrieved 11 minutes ago)

TAF EPKK 190530Z 1906/2006 06004KT CAVOK BECMG 1906/1908 24010KT PROB40 TEMPO 1915/1920 SCT040CB TEMPO 1920/1923 30015G30KT 4000 TSRA BKN030CB